createdAt,value
2023-03-04T00:00:32.216Z,-1.03
2023-03-04T00:02:59.738Z,-1.02
2023-03-04T00:05:27.314Z,-1.03
2023-03-04T00:07:54.808Z,-1.00
2023-03-04T00:10:22.342Z,-0.99
2023-03-04T00:12:49.770Z,-1.02
2023-03-04T00:15:17.505Z,-1.09
2023-03-04T00:17:46.294Z,-1.03
2023-03-04T00:20:14.280Z,-1.06
2023-03-04T00:22:41.738Z,-1.06
2023-03-04T00:25:09.479Z,-1.06
2023-03-04T00:27:36.908Z,-1.00
2023-03-04T00:30:06.897Z,-0.98
2023-03-04T00:32:34.424Z,-0.94
2023-03-04T00:35:02.022Z,-0.88
2023-03-04T00:37:29.567Z,-0.94
2023-03-04T00:39:57.047Z,-0.87
2023-03-04T00:42:24.658Z,-0.92
2023-03-04T00:44:52.259Z,-0.85
2023-03-04T00:47:19.755Z,-0.86
2023-03-04T00:49:47.250Z,-0.84
2023-03-04T00:52:14.907Z,-0.85
2023-03-04T00:54:42.429Z,-0.83
2023-03-04T00:57:09.935Z,-0.77
2023-03-04T00:59:37.633Z,-0.84
2023-03-04T01:02:05.213Z,-0.82
2023-03-04T01:04:33.043Z,-0.76
2023-03-04T01:07:00.613Z,-0.73
2023-03-04T01:09:29.569Z,-0.70
2023-03-04T01:11:57.517Z,-0.67
2023-03-04T01:14:25.062Z,-0.68
2023-03-04T01:16:52.569Z,-0.75
2023-03-04T01:19:20.095Z,-0.70
2023-03-04T01:21:47.637Z,-0.70
2023-03-04T01:24:16.431Z,-0.66
2023-03-04T01:26:43.901Z,-0.62
2023-03-04T01:29:11.424Z,-0.68
2023-03-04T01:31:39.006Z,-0.64
2023-03-04T01:34:06.565Z,-0.63
2023-03-04T01:36:36.481Z,-0.64
2023-03-04T01:39:04.879Z,-0.58
2023-03-04T01:41:32.871Z,-0.65
2023-03-04T01:44:02.599Z,-0.63
2023-03-04T01:46:31.632Z,-0.61
2023-03-04T01:48:59.522Z,-0.64
2023-03-04T01:51:27.226Z,-0.61
2023-03-04T01:53:55.133Z,-0.61
2023-03-04T01:56:25.490Z,-0.59
2023-03-04T01:59:09.604Z,-0.52
2023-03-04T02:01:38.839Z,-0.62
2023-03-04T02:04:07.835Z,-0.66
2023-03-04T02:06:38.352Z,-0.71
2023-03-04T02:09:07.162Z,-0.64
2023-03-04T02:11:36.059Z,-0.59
2023-03-04T02:14:04.748Z,-0.61
2023-03-04T02:16:32.787Z,-0.62
2023-03-04T02:19:01.318Z,-0.66
2023-03-04T02:21:33.539Z,-0.60
2023-03-04T02:24:20.269Z,-0.59
2023-03-04T02:26:47.880Z,-0.55
2023-03-04T02:29:17.554Z,-0.52
2023-03-04T02:31:51.844Z,-0.50
2023-03-04T02:34:34.248Z,-0.51
2023-03-04T02:37:03.320Z,-0.52
2023-03-04T02:39:39.861Z,-0.47
2023-03-04T02:42:08.225Z,-0.48
2023-03-04T02:44:39.628Z,-0.43
2023-03-04T02:47:09.731Z,-0.51
2023-03-04T02:49:39.363Z,-0.46
2023-03-04T02:52:17.914Z,-0.51
2023-03-04T02:54:45.527Z,-0.48
2023-03-04T02:57:15.011Z,-0.50
2023-03-04T02:59:45.573Z,-0.55
2023-03-04T03:02:18.054Z,-0.52
2023-03-04T03:04:46.275Z,-0.50
2023-03-04T03:07:16.468Z,-0.52
2023-03-04T03:09:44.431Z,-0.51
2023-03-04T03:12:11.961Z,-0.46
2023-03-04T03:14:39.585Z,-0.41
2023-03-04T03:17:09.320Z,-0.41
2023-03-04T03:19:36.859Z,-0.43
2023-03-04T03:22:06.768Z,-0.45
2023-03-04T03:24:34.611Z,-0.44
2023-03-04T03:27:02.099Z,-0.38
2023-03-04T03:29:29.667Z,-0.39
2023-03-04T03:31:57.310Z,-0.40
2023-03-04T03:34:24.934Z,-0.39
2023-03-04T03:36:52.482Z,-0.41
2023-03-04T03:39:20.204Z,-0.40
2023-03-04T03:41:47.790Z,-0.38
2023-03-04T03:44:15.254Z,-0.37
2023-03-04T03:46:42.719Z,-0.38
2023-03-04T03:49:10.225Z,-0.38
2023-03-04T03:51:37.629Z,-0.41
2023-03-04T03:54:05.118Z,-0.40
2023-03-04T03:56:32.589Z,-0.42
2023-03-04T03:59:00.135Z,-0.42
2023-03-04T04:01:27.669Z,-0.35
2023-03-04T04:03:55.196Z,-0.33
2023-03-04T04:06:22.750Z,-0.41
2023-03-04T04:08:50.341Z,-0.40
2023-03-04T04:11:17.997Z,-0.40
2023-03-04T04:13:45.507Z,-0.43
2023-03-04T04:16:13.099Z,-0.47
2023-03-04T04:18:41.111Z,-0.50
2023-03-04T04:21:08.521Z,-0.48
2023-03-04T04:23:36.197Z,-0.41
2023-03-04T04:26:03.927Z,-0.40
2023-03-04T04:28:31.532Z,-0.42
2023-03-04T04:30:59.063Z,-0.44
2023-03-04T04:33:26.988Z,-0.41
2023-03-04T04:35:54.566Z,-0.42
2023-03-04T04:38:22.136Z,-0.43
2023-03-04T04:40:49.578Z,-0.42
2023-03-04T04:43:17.096Z,-0.47
2023-03-04T04:45:44.662Z,-0.45
2023-03-04T04:48:12.286Z,-0.44
2023-03-04T04:50:39.733Z,-0.39
2023-03-04T04:53:07.244Z,-0.38
2023-03-04T04:55:35.104Z,-0.38
2023-03-04T04:58:02.671Z,-0.41
2023-03-04T05:00:30.075Z,-0.37
2023-03-04T05:02:57.680Z,-0.36
2023-03-04T05:05:25.148Z,-0.38
2023-03-04T05:07:52.692Z,-0.37
2023-03-04T05:10:20.457Z,-0.35
2023-03-04T05:12:47.992Z,-0.36
2023-03-04T05:15:15.877Z,-0.37
2023-03-04T05:17:43.522Z,-0.36
2023-03-04T05:20:11.756Z,-0.32
2023-03-04T05:22:39.402Z,-0.32
2023-03-04T05:25:08.000Z,-0.31
2023-03-04T05:27:35.563Z,-0.31
2023-03-04T05:30:03.067Z,-0.27
2023-03-04T05:32:30.698Z,-0.34
2023-03-04T05:39:04.696Z,-0.30
2023-03-04T05:41:32.182Z,-0.29
2023-03-04T05:43:59.716Z,-0.21
2023-03-04T05:46:27.458Z,-0.24
2023-03-04T05:48:55.505Z,-0.22
2023-03-04T05:51:23.646Z,-0.21
2023-03-04T05:53:51.415Z,-0.15
2023-03-04T05:56:20.257Z,-0.16
2023-03-04T05:58:47.775Z,-0.19
2023-03-04T06:01:15.854Z,-0.19
2023-03-04T06:03:48.721Z,-0.11
2023-03-04T06:06:17.277Z,-0.07
2023-03-04T06:08:44.695Z,-0.07
2023-03-04T06:11:12.187Z,-0.01
2023-03-04T06:13:40.367Z,0.00
2023-03-04T06:16:08.383Z,0.07
2023-03-04T06:18:35.846Z,0.02
2023-03-04T06:21:04.035Z,0.06
2023-03-04T06:23:32.767Z,0.08
2023-03-04T06:26:01.866Z,0.06
2023-03-04T06:28:30.566Z,0.08
2023-03-04T06:30:58.110Z,0.09
2023-03-04T06:33:26.499Z,0.12
2023-03-04T06:35:55.860Z,0.14
2023-03-04T06:38:24.316Z,0.13
2023-03-04T06:40:52.105Z,0.14
2023-03-04T06:43:20.187Z,0.13
2023-03-04T06:45:47.877Z,0.18
2023-03-04T06:48:15.394Z,0.19
2023-03-04T06:50:42.963Z,0.13
2023-03-04T06:53:10.398Z,0.16
2023-03-04T06:55:37.898Z,0.25
2023-03-04T06:58:05.594Z,0.33
2023-03-04T07:00:33.211Z,0.34
2023-03-04T07:03:02.014Z,0.33
2023-03-04T07:05:29.577Z,0.41
2023-03-04T07:07:57.066Z,0.40
2023-03-04T07:10:24.514Z,0.43
2023-03-04T07:12:51.992Z,0.47
2023-03-04T07:15:19.536Z,0.55
2023-03-04T07:17:47.033Z,0.58
2023-03-04T07:20:14.645Z,0.59
2023-03-04T07:22:42.088Z,0.62
2023-03-04T07:25:09.867Z,0.57
2023-03-04T07:27:38.809Z,0.67
2023-03-04T07:30:07.358Z,0.71
2023-03-04T07:32:35.899Z,0.71
2023-03-04T07:35:04.586Z,0.76
2023-03-04T07:37:32.014Z,0.76
2023-03-04T07:39:59.532Z,0.77
2023-03-04T07:42:26.999Z,0.73
2023-03-04T07:45:01.965Z,0.77
2023-03-04T07:47:29.435Z,0.73
2023-03-04T07:49:57.114Z,0.83
2023-03-04T07:52:24.692Z,0.79
2023-03-04T07:54:52.227Z,0.78
2023-03-04T07:57:19.820Z,0.82
2023-03-04T07:59:47.279Z,0.82
2023-03-04T08:02:15.888Z,0.89
2023-03-04T08:04:43.405Z,0.88
2023-03-04T08:07:10.927Z,0.94
2023-03-04T08:09:38.440Z,0.90
2023-03-04T08:12:06.612Z,1.03
2023-03-04T08:14:34.356Z,1.09
2023-03-04T08:17:01.992Z,1.24
2023-03-04T08:19:29.702Z,1.28
2023-03-04T08:21:57.266Z,1.24
2023-03-04T08:24:24.741Z,1.38
2023-03-04T08:26:52.224Z,1.47
2023-03-04T08:29:22.288Z,1.52
2023-03-04T08:31:51.035Z,1.58
2023-03-04T08:34:21.340Z,1.76
2023-03-04T08:36:49.049Z,1.86
2023-03-04T08:39:17.959Z,2.14
2023-03-04T08:41:46.713Z,2.27
2023-03-04T08:44:14.714Z,2.30
2023-03-04T08:46:43.673Z,2.28
2023-03-04T08:49:14.787Z,2.22
2023-03-04T08:51:43.019Z,2.23
2023-03-04T08:54:10.539Z,2.27
2023-03-04T08:56:38.237Z,2.39
2023-03-04T08:59:05.723Z,2.27
2023-03-04T09:01:36.371Z,2.24
2023-03-04T09:04:03.965Z,2.27
2023-03-04T09:06:31.488Z,2.33
2023-03-04T09:08:58.972Z,2.46
2023-03-04T09:11:26.476Z,2.52
2023-03-04T09:13:54.196Z,2.80
2023-03-04T09:16:22.004Z,2.71
2023-03-04T09:18:49.677Z,2.84
2023-03-04T09:21:17.257Z,2.74
2023-03-04T09:23:44.773Z,2.67
2023-03-04T09:26:16.938Z,2.63
2023-03-04T09:28:44.526Z,2.67
2023-03-04T09:31:14.307Z,2.72
2023-03-04T09:33:43.283Z,2.79
2023-03-04T09:36:12.841Z,2.76
2023-03-04T09:38:41.375Z,2.66
2023-03-04T09:41:14.089Z,2.74
2023-03-04T09:43:43.297Z,2.75
2023-03-04T09:46:16.124Z,2.76
2023-03-04T09:48:54.846Z,3.01
2023-03-04T09:51:51.265Z,3.06
2023-03-04T09:54:41.279Z,3.34
2023-03-04T09:57:39.237Z,3.14
2023-03-04T10:00:24.491Z,3.22
2023-03-04T10:03:10.318Z,3.15
2023-03-04T10:05:54.692Z,3.24
2023-03-04T10:08:25.202Z,3.26
2023-03-04T10:10:56.939Z,3.22
2023-03-04T10:13:34.193Z,3.36
2023-03-04T10:16:04.625Z,3.48
2023-03-04T10:18:44.055Z,3.31
2023-03-04T10:21:30.853Z,3.59
2023-03-04T10:24:02.106Z,3.67
2023-03-04T10:26:33.535Z,3.62
2023-03-04T10:29:03.294Z,3.74
2023-03-04T10:31:36.898Z,4.01
2023-03-04T10:34:05.534Z,4.20
2023-03-04T10:36:44.348Z,4.03
2023-03-04T10:39:32.119Z,4.08
2023-03-04T10:42:25.064Z,4.06
2023-03-04T10:44:58.417Z,4.14
2023-03-04T10:47:28.675Z,4.03
2023-03-04T10:49:58.816Z,4.09
2023-03-04T10:52:53.342Z,4.09
2023-03-04T10:55:26.160Z,3.99
2023-03-04T10:58:05.432Z,3.98
2023-03-04T11:00:37.855Z,3.90
2023-03-04T11:03:29.669Z,3.79
2023-03-04T11:06:20.465Z,4.00
2023-03-04T11:08:58.839Z,4.21
2023-03-04T11:11:43.068Z,4.13
2023-03-04T11:14:26.144Z,4.13
2023-03-04T11:17:01.610Z,4.02
2023-03-04T11:19:35.849Z,3.91
2023-03-04T11:22:04.037Z,3.73
2023-03-04T11:24:34.969Z,3.67
2023-03-04T11:27:08.801Z,3.58
2023-03-04T11:29:36.130Z,3.40
2023-03-04T11:32:35.537Z,3.24
2023-03-04T11:35:33.342Z,3.29
2023-03-04T11:38:18.727Z,3.43
2023-03-04T11:41:11.513Z,3.36
2023-03-04T11:43:43.089Z,3.31
2023-03-04T11:46:48.257Z,3.26
2023-03-04T11:49:46.423Z,3.42
2023-03-04T11:52:36.608Z,3.38
2023-03-04T11:55:19.057Z,3.35
2023-03-04T11:57:55.582Z,3.30
2023-03-04T12:00:39.782Z,3.39
2023-03-04T12:03:19.576Z,3.36
2023-03-04T12:06:08.434Z,3.44
2023-03-04T12:08:53.683Z,3.41
2023-03-04T12:11:39.644Z,3.35
2023-03-04T12:14:36.304Z,3.42
2023-03-04T12:17:14.003Z,3.48
2023-03-04T12:19:50.559Z,3.58
2023-03-04T12:22:33.812Z,3.47
2023-03-04T12:25:35.330Z,3.50
2023-03-04T12:28:17.004Z,3.40
2023-03-04T12:31:02.803Z,3.50
2023-03-04T12:33:39.633Z,3.53
2023-03-04T12:36:25.896Z,3.55
2023-03-04T12:39:02.445Z,3.65
2023-03-04T12:41:47.907Z,3.53
2023-03-04T12:44:18.275Z,3.44
2023-03-04T12:47:26.405Z,3.40
2023-03-04T12:50:30.214Z,3.43
2023-03-04T12:53:11.844Z,3.58
2023-03-04T12:55:45.554Z,3.74
2023-03-04T12:58:18.460Z,3.81
2023-03-04T13:00:56.571Z,3.82
2023-03-04T13:03:45.693Z,3.74
2023-03-04T13:06:15.872Z,3.73
2023-03-04T13:08:57.050Z,3.65
2023-03-04T13:11:27.662Z,3.76
2023-03-04T13:14:23.781Z,3.66
2023-03-04T13:17:01.980Z,3.68
2023-03-04T13:19:49.422Z,3.62
2023-03-04T13:22:38.200Z,3.62
2023-03-04T13:25:33.495Z,3.61
2023-03-04T13:28:02.893Z,3.54
2023-03-04T13:30:33.584Z,3.40
2023-03-04T13:33:13.754Z,3.45
2023-03-04T13:35:47.511Z,3.48
2023-03-04T13:38:25.304Z,3.50
2023-03-04T13:41:21.750Z,3.60
2023-03-04T13:44:00.153Z,3.59
2023-03-04T13:46:27.761Z,3.66
2023-03-04T13:49:00.741Z,3.52
2023-03-04T13:51:41.667Z,3.66
2023-03-04T13:54:22.064Z,3.76
2023-03-04T13:57:01.532Z,3.67
2023-03-04T13:59:34.764Z,3.79
2023-03-04T14:02:04.110Z,3.77
2023-03-04T14:04:37.583Z,3.94
2023-03-04T14:07:29.418Z,3.99
2023-03-04T14:10:01.364Z,4.02
2023-03-04T14:12:32.081Z,3.98
2023-03-04T14:15:14.690Z,4.00
2023-03-04T14:17:49.635Z,3.91
2023-03-04T14:20:34.189Z,3.85
2023-03-04T14:23:04.279Z,3.96
2023-03-04T14:25:36.561Z,3.89
2023-03-04T14:28:16.827Z,3.76
2023-03-04T14:30:52.652Z,3.74
2023-03-04T14:33:24.450Z,3.85
2023-03-04T14:35:55.424Z,3.98
2023-03-04T14:38:32.292Z,4.07
2023-03-04T14:41:08.919Z,4.00
2023-03-04T14:43:59.003Z,4.02
2023-03-04T14:46:34.315Z,4.02
2023-03-04T14:49:02.739Z,4.05
2023-03-04T14:51:43.027Z,3.95
2023-03-04T14:54:28.817Z,3.89
2023-03-04T14:56:57.418Z,3.93
2023-03-04T14:59:33.227Z,3.80
2023-03-04T15:02:19.555Z,3.90
2023-03-04T15:04:48.376Z,3.83
2023-03-04T15:07:20.164Z,3.87
2023-03-04T15:09:54.144Z,3.86
2023-03-04T15:12:30.758Z,3.93
2023-03-04T15:15:00.868Z,3.97
2023-03-04T15:17:42.765Z,3.81
2023-03-04T15:20:10.194Z,3.75
2023-03-04T15:22:56.901Z,3.72
2023-03-04T15:25:24.527Z,3.70
2023-03-04T15:27:54.063Z,3.64
2023-03-04T15:30:24.953Z,3.47
2023-03-04T15:32:52.475Z,3.47
2023-03-04T15:35:20.885Z,3.37
2023-03-04T15:37:52.419Z,3.34
2023-03-04T15:40:35.721Z,3.37
2023-03-04T15:43:05.881Z,3.31
2023-03-04T15:45:37.037Z,3.32
2023-03-04T15:48:09.800Z,3.37
2023-03-04T15:50:41.617Z,3.31
2023-03-04T15:53:27.361Z,3.34
2023-03-04T15:55:54.954Z,3.31
2023-03-04T15:58:22.580Z,3.37
2023-03-04T16:00:51.903Z,3.33
2023-03-04T16:03:21.486Z,3.25
2023-03-04T16:05:51.129Z,3.24
2023-03-04T16:08:25.189Z,3.25
2023-03-04T16:10:54.308Z,3.27
2023-03-04T16:13:23.971Z,3.26
2023-03-04T16:15:51.874Z,3.31
2023-03-04T16:18:19.754Z,3.27
2023-03-04T16:20:49.600Z,3.28
2023-03-04T16:23:20.854Z,3.23
2023-03-04T16:25:50.833Z,3.26
2023-03-04T16:28:18.665Z,3.25
2023-03-04T16:30:47.401Z,3.21
2023-03-04T16:33:16.381Z,3.18
2023-03-04T16:35:45.257Z,3.13
2023-03-04T16:38:21.415Z,3.11
2023-03-04T16:40:49.771Z,3.09
2023-03-04T16:43:17.417Z,3.16
2023-03-04T16:45:45.160Z,3.10
2023-03-04T16:48:12.593Z,3.01
2023-03-04T16:50:41.066Z,3.07
2023-03-04T16:53:29.230Z,3.00
2023-03-04T16:55:58.831Z,2.95
2023-03-04T16:58:26.379Z,2.89
2023-03-04T17:00:55.213Z,2.90
2023-03-04T17:03:22.645Z,2.90
2023-03-04T17:05:50.139Z,2.89
2023-03-04T17:08:17.721Z,2.85
2023-03-04T17:10:45.226Z,2.86
2023-03-04T17:13:12.922Z,2.81
2023-03-04T17:15:42.993Z,2.79
2023-03-04T17:18:10.483Z,2.68
2023-03-04T17:20:37.950Z,2.58
2023-03-04T17:23:05.745Z,2.50
2023-03-04T17:25:33.456Z,2.45
2023-03-04T17:28:01.098Z,2.42
2023-03-04T17:30:28.829Z,2.36
2023-03-04T17:32:56.316Z,2.33
2023-03-04T17:35:25.761Z,2.30
2023-03-04T17:37:53.413Z,2.27
2023-03-04T17:40:21.060Z,2.23
2023-03-04T17:42:48.529Z,2.29
2023-03-04T17:45:16.010Z,2.27
2023-03-04T17:47:43.611Z,2.32
2023-03-04T17:50:11.686Z,2.26
2023-03-04T17:52:39.289Z,2.20
2023-03-04T17:55:07.207Z,2.21
2023-03-04T17:57:38.480Z,2.25
2023-03-04T18:00:06.972Z,2.25
2023-03-04T18:02:34.435Z,2.19
2023-03-04T18:05:07.163Z,2.27
2023-03-04T18:07:34.682Z,2.27
2023-03-04T18:10:02.303Z,2.26
2023-03-04T18:12:30.081Z,2.20
2023-03-04T18:14:57.485Z,2.14
2023-03-04T18:17:25.130Z,2.23
2023-03-04T18:19:52.663Z,2.16
2023-03-04T18:22:20.162Z,2.16
2023-03-04T18:24:47.675Z,2.16
2023-03-04T18:27:15.282Z,2.15
2023-03-04T18:29:42.757Z,2.15
2023-03-04T18:32:10.340Z,2.14
2023-03-04T18:34:37.880Z,2.19
2023-03-04T18:37:05.393Z,2.20
2023-03-04T18:39:32.857Z,2.17
2023-03-04T18:42:01.000Z,2.15
2023-03-04T18:44:28.438Z,2.19
2023-03-04T18:46:57.864Z,2.18
2023-03-04T18:49:25.646Z,2.14
2023-03-04T18:51:53.673Z,2.15
2023-03-04T18:54:21.183Z,2.09
2023-03-04T18:56:55.763Z,2.10
2023-03-04T18:59:31.449Z,2.04
2023-03-04T19:02:02.584Z,2.02
2023-03-04T19:04:30.564Z,1.99
2023-03-04T19:06:59.155Z,2.03
2023-03-04T19:09:27.426Z,2.02
2023-03-04T19:11:54.857Z,2.02
2023-03-04T19:14:22.386Z,2.03
2023-03-04T19:16:49.902Z,1.98
2023-03-04T19:19:17.776Z,1.95
2023-03-04T19:21:45.276Z,1.98
2023-03-04T19:24:12.876Z,2.04
2023-03-04T19:26:40.400Z,1.93
2023-03-04T19:29:08.037Z,1.92
2023-03-04T19:31:41.021Z,1.88
2023-03-04T19:34:09.520Z,1.93
2023-03-04T19:36:37.245Z,1.91
2023-03-04T19:39:05.726Z,1.94
2023-03-04T19:41:33.133Z,1.91
2023-03-04T19:44:00.845Z,1.86
2023-03-04T19:46:28.554Z,1.84
2023-03-04T19:48:56.013Z,1.83
2023-03-04T19:51:26.328Z,1.84
2023-03-04T19:53:54.744Z,1.90
2023-03-04T19:56:22.868Z,1.87
2023-03-04T19:58:53.837Z,1.85
2023-03-04T20:01:41.750Z,1.88
2023-03-04T20:04:12.007Z,1.87
2023-03-04T20:06:42.324Z,1.83
2023-03-04T20:09:10.697Z,1.88
2023-03-04T20:11:47.398Z,1.83
2023-03-04T20:14:22.424Z,1.75
2023-03-04T20:16:49.883Z,1.76
2023-03-04T20:19:17.418Z,1.71
2023-03-04T20:21:44.876Z,1.62
2023-03-04T20:24:13.172Z,1.64
2023-03-04T20:26:40.776Z,1.65
2023-03-04T20:29:08.331Z,1.61
2023-03-04T20:31:39.387Z,1.59
2023-03-04T20:34:08.032Z,1.56
2023-03-04T20:36:36.110Z,1.52
2023-03-04T20:39:10.270Z,1.46
2023-03-04T20:41:45.810Z,1.47
2023-03-04T20:44:13.334Z,1.41
2023-03-04T20:46:45.174Z,1.42
2023-03-04T20:49:16.299Z,1.38
2023-03-04T20:51:43.841Z,1.35
2023-03-04T20:54:11.760Z,1.44
2023-03-04T20:56:39.782Z,1.40
2023-03-04T20:59:08.925Z,1.35
2023-03-04T21:01:39.112Z,1.37
2023-03-04T21:04:07.168Z,1.34
2023-03-04T21:06:34.686Z,1.40
2023-03-04T21:09:08.282Z,1.38
2023-03-04T21:11:40.536Z,1.32
2023-03-04T21:14:14.624Z,1.31
2023-03-04T21:16:43.094Z,1.30
2023-03-04T21:19:17.028Z,1.34
2023-03-04T21:21:45.722Z,1.35
2023-03-04T21:24:20.032Z,1.32
2023-03-04T21:26:48.153Z,1.28
2023-03-04T21:29:18.030Z,1.30
2023-03-04T21:31:50.645Z,1.30
2023-03-04T21:34:24.833Z,1.29
2023-03-04T21:36:52.577Z,1.33
2023-03-04T21:39:22.978Z,1.25
2023-03-04T21:41:51.146Z,1.26
2023-03-04T21:44:28.122Z,1.25
2023-03-04T21:46:58.018Z,1.34
2023-03-04T21:49:26.573Z,1.34
2023-03-04T21:51:54.027Z,1.27
2023-03-04T21:54:21.772Z,1.29
2023-03-04T21:56:50.465Z,1.30
2023-03-04T21:59:18.062Z,1.27
2023-03-04T22:01:46.077Z,1.25
2023-03-04T22:04:13.690Z,1.38
2023-03-04T22:06:41.547Z,1.37
2023-03-04T22:09:09.763Z,1.37
2023-03-04T22:11:37.326Z,1.32
2023-03-04T22:14:05.632Z,1.34
2023-03-04T22:16:37.544Z,1.34
2023-03-04T22:19:07.810Z,1.40
2023-03-04T22:21:35.226Z,1.36
2023-03-04T22:24:02.668Z,1.34
2023-03-04T22:26:31.985Z,1.38
2023-03-04T22:29:01.372Z,1.35
2023-03-04T22:31:34.262Z,1.34
2023-03-04T22:34:10.505Z,1.33
2023-03-04T22:36:40.284Z,1.33
2023-03-04T22:39:10.501Z,1.29
2023-03-04T22:41:38.372Z,1.29
2023-03-04T22:44:07.233Z,1.27
2023-03-04T22:46:36.671Z,1.31
2023-03-04T22:49:06.937Z,1.25
2023-03-04T22:51:34.437Z,1.24
2023-03-04T22:54:01.870Z,1.28
2023-03-04T22:56:29.421Z,1.25
2023-03-04T22:58:56.908Z,1.20
2023-03-04T23:01:24.806Z,1.23
2023-03-04T23:03:53.150Z,1.20
2023-03-04T23:06:30.365Z,1.20
2023-03-04T23:08:59.004Z,1.19
2023-03-04T23:11:30.415Z,1.17
2023-03-04T23:13:58.090Z,1.17
2023-03-04T23:16:27.946Z,1.15
2023-03-04T23:18:57.118Z,1.14
2023-03-04T23:21:28.252Z,1.14
2023-03-04T23:23:56.719Z,1.11
2023-03-04T23:26:27.660Z,1.02
2023-03-04T23:28:57.261Z,1.05
2023-03-04T23:31:25.904Z,1.02
2023-03-04T23:33:57.555Z,1.06
2023-03-04T23:36:28.311Z,1.06
2023-03-04T23:38:56.606Z,1.04
2023-03-04T23:41:27.885Z,0.96
2023-03-04T23:43:57.021Z,0.96
2023-03-04T23:46:25.672Z,0.93
2023-03-04T23:48:53.979Z,0.99
2023-03-04T23:51:25.383Z,0.93
2023-03-04T23:53:52.918Z,0.96
2023-03-04T23:56:23.406Z,0.93
2023-03-04T23:58:51.493Z,0.86
